sensor_id;sensor_type;location;lat;lon;timestamp;P1;durP1;ratioP1;P2;durP2;ratioP2
1777;SDS011;886;50.082;8.222;2022-09-09T00:02:02;1.67;;;1.57;;
1777;SDS011;886;50.082;8.222;2022-09-09T00:04:38;2.97;;;1.30;;
1777;SDS011;886;50.082;8.222;2022-09-09T00:07:10;1.70;;;1.60;;
1777;SDS011;886;50.082;8.222;2022-09-09T00:09:49;2.20;;;1.70;;
1777;SDS011;886;50.082;8.222;2022-09-09T00:12:24;1.90;;;1.80;;
1777;SDS011;886;50.082;8.222;2022-09-09T00:15:02;3.13;;;1.47;;
1777;SDS011;886;50.082;8.222;2022-09-09T00:17:41;3.20;;;1.63;;
1777;SDS011;886;50.082;8.222;2022-09-09T00:20:14;1.70;;;1.60;;
1777;SDS011;886;50.082;8.222;2022-09-09T00:22:47;1.77;;;1.67;;
1777;SDS011;886;50.082;8.222;2022-09-09T00:25:22;2.00;;;1.90;;
1777;SDS011;886;50.082;8.222;2022-09-09T00:27:55;3.03;;;1.47;;
1777;SDS011;886;50.082;8.222;2022-09-09T00:30:23;2.57;;;1.83;;
1777;SDS011;886;50.082;8.222;2022-09-09T00:32:54;2.30;;;1.80;;
1777;SDS011;886;50.082;8.222;2022-09-09T00:35:27;4.13;;;1.90;;
1777;SDS011;886;50.082;8.222;2022-09-09T00:37:58;3.90;;;1.73;;
1777;SDS011;886;50.082;8.222;2022-09-09T00:40:32;4.80;;;1.70;;
1777;SDS011;886;50.082;8.222;2022-09-09T00:43:06;2.27;;;1.77;;
1777;SDS011;886;50.082;8.222;2022-09-09T00:45:52;3.80;;;2.13;;
1777;SDS011;886;50.082;8.222;2022-09-09T00:48:53;2.73;;;1.60;;
1777;SDS011;886;50.082;8.222;2022-09-09T00:51:29;3.57;;;2.03;;
1777;SDS011;886;50.082;8.222;2022-09-09T00:54:12;3.27;;;1.73;;
1777;SDS011;886;50.082;8.222;2022-09-09T00:57:03;1.70;;;1.60;;
1777;SDS011;886;50.082;8.222;2022-09-09T00:59:44;3.10;;;1.60;;
1777;SDS011;886;50.082;8.222;2022-09-09T01:02:18;2.60;;;1.80;;
1777;SDS011;886;50.082;8.222;2022-09-09T01:04:55;2.53;;;1.40;;
1777;SDS011;886;50.082;8.222;2022-09-09T01:07:30;2.47;;;1.80;;
1777;SDS011;886;50.082;8.222;2022-09-09T01:09:58;2.30;;;1.70;;
1777;SDS011;886;50.082;8.222;2022-09-09T01:12:30;4.40;;;1.90;;
1777;SDS011;886;50.082;8.222;2022-09-09T01:15:09;4.70;;;1.73;;
1777;SDS011;886;50.082;8.222;2022-09-09T01:17:46;1.77;;;1.67;;
1777;SDS011;886;50.082;8.222;2022-09-09T01:20:22;1.90;;;1.80;;
1777;SDS011;886;50.082;8.222;2022-09-09T01:22:58;1.87;;;1.73;;
1777;SDS011;886;50.082;8.222;2022-09-09T01:28:39;2.40;;;1.57;;
1777;SDS011;886;50.082;8.222;2022-09-09T01:31:10;3.10;;;1.80;;
1777;SDS011;886;50.082;8.222;2022-09-09T01:33:41;2.13;;;1.77;;
1777;SDS011;886;50.082;8.222;2022-09-09T01:36:09;2.53;;;1.90;;
1777;SDS011;886;50.082;8.222;2022-09-09T01:38:40;2.00;;;1.90;;
1777;SDS011;886;50.082;8.222;2022-09-09T01:41:09;1.90;;;1.53;;
1777;SDS011;886;50.082;8.222;2022-09-09T01:43:36;4.50;;;1.33;;
1777;SDS011;886;50.082;8.222;2022-09-09T01:46:04;1.70;;;1.50;;
1777;SDS011;886;50.082;8.222;2022-09-09T01:48:32;1.60;;;1.50;;
1777;SDS011;886;50.082;8.222;2022-09-09T01:51:00;1.97;;;1.70;;
1777;SDS011;886;50.082;8.222;2022-09-09T01:53:27;1.63;;;1.53;;
1777;SDS011;886;50.082;8.222;2022-09-09T01:56:00;5.10;;;1.70;;
1777;SDS011;886;50.082;8.222;2022-09-09T01:58:43;9.57;;;1.83;;
1777;SDS011;886;50.082;8.222;2022-09-09T02:01:23;2.60;;;1.60;;
1777;SDS011;886;50.082;8.222;2022-09-09T02:04:04;2.43;;;1.53;;
1777;SDS011;886;50.082;8.222;2022-09-09T02:06:44;2.00;;;1.80;;
1777;SDS011;886;50.082;8.222;2022-09-09T02:09:14;2.37;;;1.70;;
1777;SDS011;886;50.082;8.222;2022-09-09T02:11:48;2.57;;;1.80;;
1777;SDS011;886;50.082;8.222;2022-09-09T02:14:26;1.73;;;1.63;;
1777;SDS011;886;50.082;8.222;2022-09-09T02:16:57;2.27;;;2.03;;
1777;SDS011;886;50.082;8.222;2022-09-09T02:19:31;2.37;;;1.87;;
1777;SDS011;886;50.082;8.222;2022-09-09T02:22:02;1.73;;;1.30;;
1777;SDS011;886;50.082;8.222;2022-09-09T02:24:31;2.33;;;1.40;;
1777;SDS011;886;50.082;8.222;2022-09-09T02:27:03;2.60;;;1.37;;
1777;SDS011;886;50.082;8.222;2022-09-09T02:29:35;2.37;;;1.50;;
1777;SDS011;886;50.082;8.222;2022-09-09T02:32:08;5.40;;;1.60;;
1777;SDS011;886;50.082;8.222;2022-09-09T02:34:39;2.20;;;1.40;;
1777;SDS011;886;50.082;8.222;2022-09-09T02:37:10;3.87;;;1.33;;
1777;SDS011;886;50.082;8.222;2022-09-09T02:39:38;2.37;;;1.63;;
1777;SDS011;886;50.082;8.222;2022-09-09T02:42:06;2.00;;;1.70;;
1777;SDS011;886;50.082;8.222;2022-09-09T02:44:34;2.10;;;1.53;;
1777;SDS011;886;50.082;8.222;2022-09-09T02:47:18;2.90;;;1.67;;
1777;SDS011;886;50.082;8.222;2022-09-09T02:50:02;3.40;;;1.37;;
1777;SDS011;886;50.082;8.222;2022-09-09T02:52:41;2.90;;;1.40;;
1777;SDS011;886;50.082;8.222;2022-09-09T02:55:17;1.97;;;1.50;;
1777;SDS011;886;50.082;8.222;2022-09-09T02:57:51;3.70;;;1.97;;
1777;SDS011;886;50.082;8.222;2022-09-09T03:00:22;3.00;;;1.77;;
1777;SDS011;886;50.082;8.222;2022-09-09T03:02:51;3.30;;;1.33;;
1777;SDS011;886;50.082;8.222;2022-09-09T03:05:21;3.00;;;1.43;;
1777;SDS011;886;50.082;8.222;2022-09-09T03:07:48;1.97;;;1.63;;
1777;SDS011;886;50.082;8.222;2022-09-09T03:10:16;2.83;;;1.43;;
1777;SDS011;886;50.082;8.222;2022-09-09T03:12:43;1.87;;;1.53;;
1777;SDS011;886;50.082;8.222;2022-09-09T03:15:12;1.97;;;1.77;;
1777;SDS011;886;50.082;8.222;2022-09-09T03:17:42;1.70;;;1.60;;
1777;SDS011;886;50.082;8.222;2022-09-09T03:20:10;3.07;;;1.87;;
1777;SDS011;886;50.082;8.222;2022-09-09T03:22:37;4.00;;;1.90;;
1777;SDS011;886;50.082;8.222;2022-09-09T03:25:05;2.33;;;1.67;;
1777;SDS011;886;50.082;8.222;2022-09-09T03:27:32;2.20;;;2.00;;
1777;SDS011;886;50.082;8.222;2022-09-09T03:30:02;1.67;;;1.57;;
1777;SDS011;886;50.082;8.222;2022-09-09T03:32:32;2.63;;;2.43;;
1777;SDS011;886;50.082;8.222;2022-09-09T03:34:59;2.17;;;1.70;;
1777;SDS011;886;50.082;8.222;2022-09-09T03:37:26;3.23;;;1.90;;
1777;SDS011;886;50.082;8.222;2022-09-09T03:39:53;2.07;;;1.60;;
1777;SDS011;886;50.082;8.222;2022-09-09T03:42:27;3.00;;;1.97;;
1777;SDS011;886;50.082;8.222;2022-09-09T03:44:54;4.27;;;2.27;;
1777;SDS011;886;50.082;8.222;2022-09-09T03:47:21;1.93;;;1.43;;
1777;SDS011;886;50.082;8.222;2022-09-09T03:49:49;1.50;;;1.33;;
1777;SDS011;886;50.082;8.222;2022-09-09T03:52:16;2.77;;;1.70;;
1777;SDS011;886;50.082;8.222;2022-09-09T03:54:49;1.70;;;1.60;;
1777;SDS011;886;50.082;8.222;2022-09-09T03:57:15;1.80;;;1.67;;
1777;SDS011;886;50.082;8.222;2022-09-09T03:59:43;6.10;;;1.60;;
1777;SDS011;886;50.082;8.222;2022-09-09T04:02:10;3.23;;;1.77;;
1777;SDS011;886;50.082;8.222;2022-09-09T04:04:37;1.70;;;1.33;;
1777;SDS011;886;50.082;8.222;2022-09-09T04:07:05;4.17;;;1.70;;
1777;SDS011;886;50.082;8.222;2022-09-09T04:09:33;3.17;;;1.30;;
1777;SDS011;886;50.082;8.222;2022-09-09T04:12:01;2.83;;;1.43;;
1777;SDS011;886;50.082;8.222;2022-09-09T04:14:32;1.90;;;1.70;;
1777;SDS011;886;50.082;8.222;2022-09-09T04:16:59;2.00;;;1.80;;
1777;SDS011;886;50.082;8.222;2022-09-09T04:19:26;11.17;;;1.87;;
1777;SDS011;886;50.082;8.222;2022-09-09T04:21:59;1.63;;;1.50;;
1777;SDS011;886;50.082;8.222;2022-09-09T04:24:28;1.80;;;1.70;;
1777;SDS011;886;50.082;8.222;2022-09-09T04:26:55;2.00;;;1.60;;
1777;SDS011;886;50.082;8.222;2022-09-09T04:29:22;2.10;;;1.70;;
1777;SDS011;886;50.082;8.222;2022-09-09T04:31:56;1.70;;;1.60;;
1777;SDS011;886;50.082;8.222;2022-09-09T04:34:23;3.40;;;1.60;;
1777;SDS011;886;50.082;8.222;2022-09-09T04:36:51;1.77;;;1.53;;
1777;SDS011;886;50.082;8.222;2022-09-09T04:39:18;1.83;;;1.40;;
1777;SDS011;886;50.082;8.222;2022-09-09T04:41:47;1.80;;;1.70;;
1777;SDS011;886;50.082;8.222;2022-09-09T04:44:14;2.80;;;1.63;;
1777;SDS011;886;50.082;8.222;2022-09-09T04:46:41;2.00;;;1.50;;
1777;SDS011;886;50.082;8.222;2022-09-09T04:49:11;2.00;;;1.80;;
1777;SDS011;886;50.082;8.222;2022-09-09T04:51:40;7.33;;;1.83;;
1777;SDS011;886;50.082;8.222;2022-09-09T04:54:07;1.93;;;1.83;;
1777;SDS011;886;50.082;8.222;2022-09-09T04:56:34;3.77;;;1.70;;
1777;SDS011;886;50.082;8.222;2022-09-09T04:59:03;1.83;;;1.70;;
1777;SDS011;886;50.082;8.222;2022-09-09T05:01:31;2.37;;;1.83;;
1777;SDS011;886;50.082;8.222;2022-09-09T05:03:58;2.40;;;2.20;;
1777;SDS011;886;50.082;8.222;2022-09-09T05:06:25;3.27;;;2.23;;
1777;SDS011;886;50.082;8.222;2022-09-09T05:08:52;2.30;;;2.10;;
1777;SDS011;886;50.082;8.222;2022-09-09T05:11:21;4.73;;;3.30;;
1777;SDS011;886;50.082;8.222;2022-09-09T05:13:50;2.97;;;1.90;;
1777;SDS011;886;50.082;8.222;2022-09-09T05:16:20;2.10;;;1.83;;
1777;SDS011;886;50.082;8.222;2022-09-09T05:18:49;2.70;;;1.80;;
1777;SDS011;886;50.082;8.222;2022-09-09T05:21:18;5.13;;;4.70;;
1777;SDS011;886;50.082;8.222;2022-09-09T05:23:46;5.00;;;3.67;;
1777;SDS011;886;50.082;8.222;2022-09-09T05:26:18;3.83;;;2.77;;
1777;SDS011;886;50.082;8.222;2022-09-09T05:28:47;2.73;;;2.47;;
1777;SDS011;886;50.082;8.222;2022-09-09T05:31:15;3.50;;;2.93;;
1777;SDS011;886;50.082;8.222;2022-09-09T05:33:47;2.70;;;2.40;;
1777;SDS011;886;50.082;8.222;2022-09-09T05:36:16;4.63;;;2.30;;
1777;SDS011;886;50.082;8.222;2022-09-09T05:38:45;3.60;;;2.20;;
1777;SDS011;886;50.082;8.222;2022-09-09T05:41:14;3.67;;;2.10;;
1777;SDS011;886;50.082;8.222;2022-09-09T05:43:42;2.63;;;1.93;;
1777;SDS011;886;50.082;8.222;2022-09-09T05:46:11;4.50;;;2.23;;
1777;SDS011;886;50.082;8.222;2022-09-09T05:48:40;2.20;;;2.00;;
1777;SDS011;886;50.082;8.222;2022-09-09T05:51:17;1.80;;;1.70;;
1777;SDS011;886;50.082;8.222;2022-09-09T05:53:50;2.40;;;1.73;;
1777;SDS011;886;50.082;8.222;2022-09-09T05:56:19;7.73;;;2.43;;
1777;SDS011;886;50.082;8.222;2022-09-09T05:58:54;4.63;;;1.87;;
1777;SDS011;886;50.082;8.222;2022-09-09T06:01:22;4.33;;;2.53;;
1777;SDS011;886;50.082;8.222;2022-09-09T06:03:54;6.13;;;2.40;;
1777;SDS011;886;50.082;8.222;2022-09-09T06:06:26;4.50;;;2.13;;
1777;SDS011;886;50.082;8.222;2022-09-09T06:08:57;2.47;;;2.27;;
1777;SDS011;886;50.082;8.222;2022-09-09T06:11:25;2.50;;;2.17;;
1777;SDS011;886;50.082;8.222;2022-09-09T06:13:57;3.10;;;2.27;;
1777;SDS011;886;50.082;8.222;2022-09-09T06:16:25;9.00;;;2.00;;
1777;SDS011;886;50.082;8.222;2022-09-09T06:18:54;7.20;;;2.90;;
1777;SDS011;886;50.082;8.222;2022-09-09T06:21:27;6.10;;;2.43;;
1777;SDS011;886;50.082;8.222;2022-09-09T06:23:59;8.60;;;2.83;;
1777;SDS011;886;50.082;8.222;2022-09-09T06:26:27;3.03;;;2.73;;
1777;SDS011;886;50.082;8.222;2022-09-09T06:28:56;3.10;;;2.47;;
1777;SDS011;886;50.082;8.222;2022-09-09T06:31:32;2.90;;;2.00;;
1777;SDS011;886;50.082;8.222;2022-09-09T06:34:01;3.23;;;2.10;;
1777;SDS011;886;50.082;8.222;2022-09-09T06:36:32;4.67;;;2.20;;
1777;SDS011;886;50.082;8.222;2022-09-09T06:39:01;2.57;;;2.13;;
1777;SDS011;886;50.082;8.222;2022-09-09T06:41:38;2.00;;;1.80;;
1777;SDS011;886;50.082;8.222;2022-09-09T06:44:06;2.57;;;2.00;;
1777;SDS011;886;50.082;8.222;2022-09-09T06:46:41;2.40;;;1.90;;
1777;SDS011;886;50.082;8.222;2022-09-09T06:49:14;2.60;;;2.30;;
1777;SDS011;886;50.082;8.222;2022-09-09T06:51:42;3.57;;;2.23;;
1777;SDS011;886;50.082;8.222;2022-09-09T06:54:10;3.77;;;2.30;;
1777;SDS011;886;50.082;8.222;2022-09-09T06:56:38;2.67;;;1.87;;
1777;SDS011;886;50.082;8.222;2022-09-09T06:59:11;7.37;;;1.90;;
1777;SDS011;886;50.082;8.222;2022-09-09T07:01:39;3.67;;;2.07;;
1777;SDS011;886;50.082;8.222;2022-09-09T07:04:08;5.03;;;2.20;;
1777;SDS011;886;50.082;8.222;2022-09-09T07:06:37;2.93;;;1.33;;
1777;SDS011;886;50.082;8.222;2022-09-09T07:09:08;3.20;;;1.60;;
1777;SDS011;886;50.082;8.222;2022-09-09T07:11:38;5.20;;;2.07;;
1777;SDS011;886;50.082;8.222;2022-09-09T07:14:08;3.43;;;2.00;;
1777;SDS011;886;50.082;8.222;2022-09-09T07:16:40;4.33;;;1.93;;
1777;SDS011;886;50.082;8.222;2022-09-09T07:19:08;3.03;;;1.97;;
1777;SDS011;886;50.082;8.222;2022-09-09T07:21:38;4.37;;;2.03;;
1777;SDS011;886;50.082;8.222;2022-09-09T07:24:07;1.60;;;1.50;;
1777;SDS011;886;50.082;8.222;2022-09-09T07:26:37;2.83;;;2.13;;
1777;SDS011;886;50.082;8.222;2022-09-09T07:29:05;3.50;;;2.10;;
1777;SDS011;886;50.082;8.222;2022-09-09T07:31:33;3.47;;;2.27;;
1777;SDS011;886;50.082;8.222;2022-09-09T07:34:03;2.73;;;2.20;;
1777;SDS011;886;50.082;8.222;2022-09-09T07:36:31;5.23;;;2.70;;
1777;SDS011;886;50.082;8.222;2022-09-09T07:39:01;6.53;;;2.67;;
1777;SDS011;886;50.082;8.222;2022-09-09T07:41:33;6.07;;;2.80;;
1777;SDS011;886;50.082;8.222;2022-09-09T07:44:10;3.10;;;2.33;;
1777;SDS011;886;50.082;8.222;2022-09-09T07:46:40;5.67;;;2.57;;
1777;SDS011;886;50.082;8.222;2022-09-09T07:49:10;3.20;;;2.23;;
1777;SDS011;886;50.082;8.222;2022-09-09T07:51:39;4.20;;;2.10;;
1777;SDS011;886;50.082;8.222;2022-09-09T07:54:09;2.80;;;2.60;;
1777;SDS011;886;50.082;8.222;2022-09-09T07:56:40;8.73;;;2.77;;
1777;SDS011;886;50.082;8.222;2022-09-09T07:59:08;7.33;;;2.07;;
1777;SDS011;886;50.082;8.222;2022-09-09T08:01:37;3.23;;;2.47;;
1777;SDS011;886;50.082;8.222;2022-09-09T08:04:07;3.20;;;2.23;;
1777;SDS011;886;50.082;8.222;2022-09-09T08:06:37;5.43;;;2.57;;
1777;SDS011;886;50.082;8.222;2022-09-09T08:09:06;3.70;;;2.33;;
1777;SDS011;886;50.082;8.222;2022-09-09T08:11:36;5.10;;;2.30;;
1777;SDS011;886;50.082;8.222;2022-09-09T08:14:06;2.40;;;2.30;;
1777;SDS011;886;50.082;8.222;2022-09-09T08:16:36;9.17;;;2.87;;
1777;SDS011;886;50.082;8.222;2022-09-09T08:19:04;3.43;;;3.23;;
1777;SDS011;886;50.082;8.222;2022-09-09T08:21:33;6.17;;;3.07;;
1777;SDS011;886;50.082;8.222;2022-09-09T08:24:03;6.63;;;3.83;;
1777;SDS011;886;50.082;8.222;2022-09-09T08:26:31;5.40;;;4.03;;
1777;SDS011;886;50.082;8.222;2022-09-09T08:29:02;3.70;;;3.33;;
1777;SDS011;886;50.082;8.222;2022-09-09T08:31:32;3.00;;;2.80;;
1777;SDS011;886;50.082;8.222;2022-09-09T08:34:00;3.90;;;3.20;;
1777;SDS011;886;50.082;8.222;2022-09-09T08:36:30;2.87;;;2.57;;
1777;SDS011;886;50.082;8.222;2022-09-09T08:38:59;4.63;;;2.90;;
1777;SDS011;886;50.082;8.222;2022-09-09T08:41:35;3.73;;;2.37;;
1777;SDS011;886;50.082;8.222;2022-09-09T08:44:31;7.10;;;2.70;;
1777;SDS011;886;50.082;8.222;2022-09-09T08:47:18;2.73;;;2.53;;
1777;SDS011;886;50.082;8.222;2022-09-09T08:50:02;3.63;;;2.87;;
1777;SDS011;886;50.082;8.222;2022-09-09T08:52:47;5.50;;;3.27;;
1777;SDS011;886;50.082;8.222;2022-09-09T08:55:22;5.43;;;3.30;;
1777;SDS011;886;50.082;8.222;2022-09-09T08:57:59;3.60;;;3.30;;
1777;SDS011;886;50.082;8.222;2022-09-09T09:00:40;2.97;;;2.77;;
1777;SDS011;886;50.082;8.222;2022-09-09T09:03:28;4.00;;;3.70;;
1777;SDS011;886;50.082;8.222;2022-09-09T09:06:04;5.90;;;4.13;;
1777;SDS011;886;50.082;8.222;2022-09-09T09:08:53;8.03;;;3.10;;
1777;SDS011;886;50.082;8.222;2022-09-09T09:11:33;3.27;;;2.90;;
1777;SDS011;886;50.082;8.222;2022-09-09T09:14:03;3.50;;;3.10;;
1777;SDS011;886;50.082;8.222;2022-09-09T09:16:38;3.37;;;2.60;;
1777;SDS011;886;50.082;8.222;2022-09-09T09:19:12;3.83;;;2.60;;
1777;SDS011;886;50.082;8.222;2022-09-09T09:21:41;2.40;;;2.23;;
1777;SDS011;886;50.082;8.222;2022-09-09T09:24:12;2.93;;;2.40;;
1777;SDS011;886;50.082;8.222;2022-09-09T09:26:47;4.57;;;2.70;;
1777;SDS011;886;50.082;8.222;2022-09-09T09:29:15;2.73;;;2.30;;
1777;SDS011;886;50.082;8.222;2022-09-09T09:31:47;2.17;;;2.00;;
1777;SDS011;886;50.082;8.222;2022-09-09T09:34:18;2.90;;;2.57;;
1777;SDS011;886;50.082;8.222;2022-09-09T09:36:46;5.60;;;5.10;;
1777;SDS011;886;50.082;8.222;2022-09-09T09:39:24;3.33;;;3.03;;
1777;SDS011;886;50.082;8.222;2022-09-09T09:42:14;4.23;;;2.50;;
1777;SDS011;886;50.082;8.222;2022-09-09T09:44:48;6.97;;;2.50;;
1777;SDS011;886;50.082;8.222;2022-09-09T09:47:17;4.17;;;2.63;;
1777;SDS011;886;50.082;8.222;2022-09-09T09:49:56;4.90;;;2.47;;
1777;SDS011;886;50.082;8.222;2022-09-09T09:52:33;2.50;;;2.30;;
1777;SDS011;886;50.082;8.222;2022-09-09T09:55:03;2.33;;;2.13;;
1777;SDS011;886;50.082;8.222;2022-09-09T09:57:44;3.03;;;2.33;;
1777;SDS011;886;50.082;8.222;2022-09-09T10:00:13;5.73;;;2.43;;
1777;SDS011;886;50.082;8.222;2022-09-09T10:02:46;2.37;;;2.17;;
1777;SDS011;886;50.082;8.222;2022-09-09T10:05:14;6.37;;;2.63;;
1777;SDS011;886;50.082;8.222;2022-09-09T10:10:41;3.50;;;2.23;;
1777;SDS011;886;50.082;8.222;2022-09-09T10:13:27;4.13;;;3.03;;
1777;SDS011;886;50.082;8.222;2022-09-09T10:16:06;4.93;;;3.23;;
1777;SDS011;886;50.082;8.222;2022-09-09T10:19:00;3.33;;;2.60;;
1777;SDS011;886;50.082;8.222;2022-09-09T10:21:34;2.50;;;2.23;;
1777;SDS011;886;50.082;8.222;2022-09-09T10:24:37;2.63;;;2.43;;
1777;SDS011;886;50.082;8.222;2022-09-09T10:27:36;3.90;;;2.30;;
1777;SDS011;886;50.082;8.222;2022-09-09T10:30:21;2.47;;;2.20;;
1777;SDS011;886;50.082;8.222;2022-09-09T10:32:53;3.30;;;2.40;;
1777;SDS011;886;50.082;8.222;2022-09-09T10:35:40;3.80;;;2.23;;
1777;SDS011;886;50.082;8.222;2022-09-09T10:38:23;4.63;;;2.63;;
1777;SDS011;886;50.082;8.222;2022-09-09T10:47:21;3.50;;;2.73;;
1777;SDS011;886;50.082;8.222;2022-09-09T10:50:12;4.20;;;2.80;;
1777;SDS011;886;50.082;8.222;2022-09-09T10:53:39;3.77;;;2.67;;
1777;SDS011;886;50.082;8.222;2022-09-09T10:56:19;3.20;;;2.87;;
1777;SDS011;886;50.082;8.222;2022-09-09T10:58:50;3.47;;;2.63;;
1777;SDS011;886;50.082;8.222;2022-09-09T11:01:28;6.33;;;3.03;;
1777;SDS011;886;50.082;8.222;2022-09-09T11:04:06;5.20;;;3.63;;
1777;SDS011;886;50.082;8.222;2022-09-09T11:06:44;3.30;;;3.07;;
1777;SDS011;886;50.082;8.222;2022-09-09T11:09:15;2.47;;;2.27;;
1777;SDS011;886;50.082;8.222;2022-09-09T11:11:51;3.77;;;2.53;;
1777;SDS011;886;50.082;8.222;2022-09-09T11:14:34;4.10;;;2.60;;
1777;SDS011;886;50.082;8.222;2022-09-09T11:17:11;4.40;;;4.10;;
1777;SDS011;886;50.082;8.222;2022-09-09T11:19:43;3.63;;;2.13;;
1777;SDS011;886;50.082;8.222;2022-09-09T11:22:16;3.50;;;2.60;;
1777;SDS011;886;50.082;8.222;2022-09-09T11:24:56;3.80;;;3.50;;
1777;SDS011;886;50.082;8.222;2022-09-09T11:27:28;4.27;;;2.40;;
1777;SDS011;886;50.082;8.222;2022-09-09T11:30:04;4.10;;;2.80;;
1777;SDS011;886;50.082;8.222;2022-09-09T11:36:43;2.60;;;1.80;;
1777;SDS011;886;50.082;8.222;2022-09-09T11:39:38;3.10;;;1.70;;
1777;SDS011;886;50.082;8.222;2022-09-09T11:42:31;3.00;;;2.37;;
1777;SDS011;886;50.082;8.222;2022-09-09T11:45:10;2.57;;;2.37;;
1777;SDS011;886;50.082;8.222;2022-09-09T11:47:58;3.07;;;2.00;;
1777;SDS011;886;50.082;8.222;2022-09-09T11:50:34;3.00;;;1.87;;
1777;SDS011;886;50.082;8.222;2022-09-09T11:53:19;3.00;;;2.80;;
1777;SDS011;886;50.082;8.222;2022-09-09T11:56:03;4.67;;;1.80;;
1777;SDS011;886;50.082;8.222;2022-09-09T11:58:41;3.30;;;2.40;;
1777;SDS011;886;50.082;8.222;2022-09-09T12:04:16;3.57;;;1.83;;
1777;SDS011;886;50.082;8.222;2022-09-09T12:06:59;3.43;;;1.90;;
1777;SDS011;886;50.082;8.222;2022-09-09T12:09:40;6.37;;;1.60;;
1777;SDS011;886;50.082;8.222;2022-09-09T12:12:30;3.40;;;1.90;;
1777;SDS011;886;50.082;8.222;2022-09-09T12:15:00;2.90;;;1.50;;
1777;SDS011;886;50.082;8.222;2022-09-09T12:17:57;3.07;;;1.53;;
1777;SDS011;886;50.082;8.222;2022-09-09T12:20:39;2.87;;;1.53;;
1777;SDS011;886;50.082;8.222;2022-09-09T12:23:35;1.90;;;1.37;;
1777;SDS011;886;50.082;8.222;2022-09-09T12:26:15;4.03;;;1.70;;
1777;SDS011;886;50.082;8.222;2022-09-09T12:29:11;2.83;;;1.50;;
1777;SDS011;886;50.082;8.222;2022-09-09T12:31:51;2.20;;;1.50;;
1777;SDS011;886;50.082;8.222;2022-09-09T12:37:16;2.07;;;1.47;;
1777;SDS011;886;50.082;8.222;2022-09-09T12:39:54;2.83;;;1.30;;
1777;SDS011;886;50.082;8.222;2022-09-09T12:42:26;4.50;;;1.60;;
1777;SDS011;886;50.082;8.222;2022-09-09T12:44:56;3.33;;;1.40;;
1777;SDS011;886;50.082;8.222;2022-09-09T12:47:33;3.03;;;1.73;;
1777;SDS011;886;50.082;8.222;2022-09-09T12:50:16;3.97;;;1.53;;
1777;SDS011;886;50.082;8.222;2022-09-09T12:52:50;1.10;;;1.00;;
1777;SDS011;886;50.082;8.222;2022-09-09T12:55:20;4.00;;;1.30;;
1777;SDS011;886;50.082;8.222;2022-09-09T12:57:52;2.30;;;1.20;;
1777;SDS011;886;50.082;8.222;2022-09-09T13:00:21;1.70;;;1.30;;
1777;SDS011;886;50.082;8.222;2022-09-09T13:02:51;2.70;;;1.17;;
1777;SDS011;886;50.082;8.222;2022-09-09T13:05:23;3.23;;;1.40;;
1777;SDS011;886;50.082;8.222;2022-09-09T13:08:00;1.90;;;1.30;;
1777;SDS011;886;50.082;8.222;2022-09-09T13:10:38;2.80;;;1.77;;
1777;SDS011;886;50.082;8.222;2022-09-09T13:13:23;3.30;;;1.50;;
1777;SDS011;886;50.082;8.222;2022-09-09T13:15:55;2.20;;;1.57;;
1777;SDS011;886;50.082;8.222;2022-09-09T13:18:24;2.53;;;1.60;;
1777;SDS011;886;50.082;8.222;2022-09-09T13:20:58;2.70;;;1.23;;
1777;SDS011;886;50.082;8.222;2022-09-09T13:23:38;2.10;;;1.30;;
1777;SDS011;886;50.082;8.222;2022-09-09T13:26:06;2.70;;;1.27;;
1777;SDS011;886;50.082;8.222;2022-09-09T13:28:51;3.33;;;1.60;;
1777;SDS011;886;50.082;8.222;2022-09-09T13:31:24;2.13;;;1.30;;
1777;SDS011;886;50.082;8.222;2022-09-09T13:33:55;1.50;;;1.40;;
1777;SDS011;886;50.082;8.222;2022-09-09T13:36:27;3.23;;;1.60;;
1777;SDS011;886;50.082;8.222;2022-09-09T13:38:57;1.27;;;1.17;;
1777;SDS011;886;50.082;8.222;2022-09-09T13:41:28;2.07;;;1.70;;
1777;SDS011;886;50.082;8.222;2022-09-09T13:43:59;1.63;;;1.23;;
1777;SDS011;886;50.082;8.222;2022-09-09T13:46:31;1.40;;;1.20;;
1777;SDS011;886;50.082;8.222;2022-09-09T13:49:02;1.97;;;1.57;;
1777;SDS011;886;50.082;8.222;2022-09-09T13:51:49;1.60;;;1.10;;
1777;SDS011;886;50.082;8.222;2022-09-09T13:54:19;2.63;;;1.20;;
1777;SDS011;886;50.082;8.222;2022-09-09T13:56:57;1.83;;;1.20;;
1777;SDS011;886;50.082;8.222;2022-09-09T13:59:24;2.80;;;1.93;;
1777;SDS011;886;50.082;8.222;2022-09-09T14:02:21;3.77;;;1.43;;
1777;SDS011;886;50.082;8.222;2022-09-09T14:04:51;2.03;;;1.20;;
1777;SDS011;886;50.082;8.222;2022-09-09T14:07:21;1.43;;;1.30;;
1777;SDS011;886;50.082;8.222;2022-09-09T14:09:48;3.10;;;1.10;;
1777;SDS011;886;50.082;8.222;2022-09-09T14:12:16;2.73;;;1.10;;
1777;SDS011;886;50.082;8.222;2022-09-09T14:14:44;2.60;;;1.07;;
1777;SDS011;886;50.082;8.222;2022-09-09T14:17:11;1.60;;;1.20;;
1777;SDS011;886;50.082;8.222;2022-09-09T14:19:45;2.37;;;1.27;;
1777;SDS011;886;50.082;8.222;2022-09-09T14:22:13;5.00;;;1.87;;
1777;SDS011;886;50.082;8.222;2022-09-09T14:24:40;1.93;;;1.50;;
1777;SDS011;886;50.082;8.222;2022-09-09T14:27:18;2.10;;;1.43;;
1777;SDS011;886;50.082;8.222;2022-09-09T14:29:45;3.30;;;1.60;;
1777;SDS011;886;50.082;8.222;2022-09-09T14:32:12;2.60;;;1.70;;
1777;SDS011;886;50.082;8.222;2022-09-09T14:34:39;5.33;;;1.87;;
1777;SDS011;886;50.082;8.222;2022-09-09T14:37:08;3.50;;;1.40;;
1777;SDS011;886;50.082;8.222;2022-09-09T14:39:35;2.90;;;1.30;;
1777;SDS011;886;50.082;8.222;2022-09-09T14:42:08;2.57;;;1.67;;
1777;SDS011;886;50.082;8.222;2022-09-09T14:44:37;2.07;;;1.30;;
1777;SDS011;886;50.082;8.222;2022-09-09T14:47:07;5.70;;;1.40;;
1777;SDS011;886;50.082;8.222;2022-09-09T14:49:37;2.53;;;1.13;;
1777;SDS011;886;50.082;8.222;2022-09-09T14:52:21;1.50;;;1.40;;
1777;SDS011;886;50.082;8.222;2022-09-09T14:54:50;2.90;;;1.77;;
1777;SDS011;886;50.082;8.222;2022-09-09T14:57:20;2.60;;;1.70;;
1777;SDS011;886;50.082;8.222;2022-09-09T14:59:47;3.30;;;1.57;;
1777;SDS011;886;50.082;8.222;2022-09-09T15:02:19;2.43;;;2.13;;
1777;SDS011;886;50.082;8.222;2022-09-09T15:04:47;3.30;;;1.90;;
1777;SDS011;886;50.082;8.222;2022-09-09T15:07:29;1.27;;;1.17;;
1777;SDS011;886;50.082;8.222;2022-09-09T15:10:05;3.10;;;1.53;;
1777;SDS011;886;50.082;8.222;2022-09-09T15:12:33;4.07;;;1.93;;
1777;SDS011;886;50.082;8.222;2022-09-09T15:15:02;1.97;;;1.37;;
1777;SDS011;886;50.082;8.222;2022-09-09T15:17:39;4.33;;;1.83;;
1777;SDS011;886;50.082;8.222;2022-09-09T15:20:06;2.97;;;1.30;;
1777;SDS011;886;50.082;8.222;2022-09-09T15:22:39;3.33;;;1.70;;
1777;SDS011;886;50.082;8.222;2022-09-09T15:25:07;2.07;;;1.63;;
1777;SDS011;886;50.082;8.222;2022-09-09T15:27:34;2.80;;;1.60;;
1777;SDS011;886;50.082;8.222;2022-09-09T15:30:05;1.73;;;1.30;;
1777;SDS011;886;50.082;8.222;2022-09-09T15:32:34;2.17;;;1.37;;
1777;SDS011;886;50.082;8.222;2022-09-09T15:35:01;3.83;;;2.67;;
1777;SDS011;886;50.082;8.222;2022-09-09T15:37:28;4.97;;;1.57;;
1777;SDS011;886;50.082;8.222;2022-09-09T15:39:59;2.40;;;1.60;;
1777;SDS011;886;50.082;8.222;2022-09-09T15:42:27;2.60;;;1.70;;
1777;SDS011;886;50.082;8.222;2022-09-09T15:45:00;1.63;;;1.17;;
1777;SDS011;886;50.082;8.222;2022-09-09T15:47:27;9.03;;;1.33;;
1777;SDS011;886;50.082;8.222;2022-09-09T15:49:57;3.37;;;1.20;;
1777;SDS011;886;50.082;8.222;2022-09-09T15:52:24;2.07;;;1.67;;
1777;SDS011;886;50.082;8.222;2022-09-09T15:55:01;2.30;;;1.77;;
1777;SDS011;886;50.082;8.222;2022-09-09T15:57:30;2.40;;;1.40;;
1777;SDS011;886;50.082;8.222;2022-09-09T15:59:59;2.60;;;1.47;;
1777;SDS011;886;50.082;8.222;2022-09-09T16:02:27;2.47;;;1.50;;
1777;SDS011;886;50.082;8.222;2022-09-09T16:04:57;1.30;;;1.20;;
1777;SDS011;886;50.082;8.222;2022-09-09T16:07:24;4.90;;;1.50;;
1777;SDS011;886;50.082;8.222;2022-09-09T16:09:51;8.00;;;4.73;;
1777;SDS011;886;50.082;8.222;2022-09-09T16:12:25;2.37;;;2.17;;
1777;SDS011;886;50.082;8.222;2022-09-09T16:14:52;2.73;;;1.70;;
1777;SDS011;886;50.082;8.222;2022-09-09T16:17:19;2.90;;;2.00;;
1777;SDS011;886;50.082;8.222;2022-09-09T16:19:48;2.60;;;1.33;;
1777;SDS011;886;50.082;8.222;2022-09-09T16:22:21;2.03;;;1.77;;
1777;SDS011;886;50.082;8.222;2022-09-09T16:24:51;1.67;;;1.30;;
1777;SDS011;886;50.082;8.222;2022-09-09T16:27:31;1.47;;;1.37;;
1777;SDS011;886;50.082;8.222;2022-09-09T16:29:59;1.30;;;1.20;;